Verin, Spain
Current Conditions -  °F | °C
As of 3:00 AM on Monday 22 Dec 2014 (Local Time) from LEVX Reporting Station
Moderate Fog Moderate Fog  
Wind Chill: 38°   Ceiling: 100
Heat Index: 43°   Visibility: 0.25mi
Dew Point: 43°   Wind: 8mph
Humidity: 100%   Direction: 200°SSW
Pressure: 30.42"   Gusts: NA
Location:  41.94°N, 7.44°W
Report Text: LEVX 220200Z 20007KT 160V240 0400 R20/0225N R02/0250N FG VV001 06/06 Q1030 NOSIG
Loading
Personal Weather Stations






























Interactive Weather Map New forecast layout! Learn more

10-Day Weather Forecast

Advertisements
Track Severe Weather on mobile